createdAt,value
2023-04-26T00:01:29.452Z,3.90
2023-04-26T00:03:57.730Z,3.80
2023-04-26T00:06:27.346Z,3.80
2023-04-26T00:08:55.906Z,3.50
2023-04-26T00:11:23.885Z,3.77
2023-04-26T00:13:52.409Z,3.80
2023-04-26T00:16:21.697Z,3.70
2023-04-26T00:18:50.207Z,3.90
2023-04-26T00:21:18.175Z,3.60
2023-04-26T00:23:46.024Z,4.00
2023-04-26T00:26:13.832Z,3.27
2023-04-26T00:28:41.702Z,3.30
2023-04-26T00:31:15.578Z,3.57
2023-04-26T00:33:45.001Z,3.47
2023-04-26T00:36:14.193Z,3.83
2023-04-26T00:38:42.337Z,3.30
2023-04-26T00:41:10.356Z,3.30
2023-04-26T00:43:38.460Z,3.80
2023-04-26T00:46:06.637Z,3.80
2023-04-26T00:48:56.414Z,4.00
2023-04-26T00:51:24.351Z,4.43
2023-04-26T00:53:52.377Z,3.87
2023-04-26T00:56:20.986Z,4.10
2023-04-26T00:58:48.991Z,3.97
2023-04-26T01:01:16.915Z,4.00
2023-04-26T01:03:47.053Z,4.40
2023-04-26T01:06:16.455Z,4.10
2023-04-26T01:08:44.372Z,3.97
2023-04-26T01:11:12.337Z,3.80
2023-04-26T01:13:42.369Z,4.20
2023-04-26T01:16:10.583Z,3.83
2023-04-26T01:18:38.976Z,3.70
2023-04-26T01:21:07.022Z,4.10
2023-04-26T01:23:36.287Z,3.97
2023-04-26T01:26:04.295Z,3.70
2023-04-26T01:28:32.164Z,4.80
2023-04-26T01:31:00.087Z,4.20
2023-04-26T01:33:28.103Z,4.10
2023-04-26T01:35:55.984Z,3.40
2023-04-26T01:38:23.834Z,4.37
2023-04-26T01:40:53.110Z,4.03
2023-04-26T01:43:22.964Z,3.63
2023-04-26T01:45:50.864Z,4.20
2023-04-26T01:48:30.951Z,4.70
2023-04-26T01:51:02.060Z,4.10
2023-04-26T01:53:29.903Z,4.33
2023-04-26T01:56:01.850Z,4.80
2023-04-26T01:58:29.730Z,4.67
2023-04-26T02:00:57.901Z,4.13
2023-04-26T02:03:26.419Z,5.10
2023-04-26T02:05:54.331Z,4.67
2023-04-26T02:08:22.330Z,4.03
2023-04-26T02:10:50.255Z,4.70
2023-04-26T02:13:19.570Z,4.60
2023-04-26T02:15:47.872Z,4.97
2023-04-26T02:18:15.937Z,4.60
2023-04-26T02:20:44.281Z,4.10
2023-04-26T02:23:12.871Z,4.97
2023-04-26T02:25:46.829Z,4.47
2023-04-26T02:28:14.749Z,4.13
2023-04-26T02:30:44.741Z,4.10
2023-04-26T02:33:12.772Z,4.07
2023-04-26T02:35:40.795Z,4.37
2023-04-26T02:38:08.985Z,4.80
2023-04-26T02:40:37.009Z,4.87
2023-04-26T02:43:04.915Z,4.20
2023-04-26T02:45:32.804Z,4.50
2023-04-26T02:48:02.064Z,4.20
2023-04-26T02:50:30.105Z,3.93
2023-04-26T02:52:58.210Z,4.50
2023-04-26T02:55:26.129Z,5.67
2023-04-26T02:57:54.398Z,4.80
2023-04-26T03:00:23.641Z,4.40
2023-04-26T03:02:52.501Z,5.27
2023-04-26T03:05:22.741Z,4.97
2023-04-26T03:07:50.626Z,5.10
2023-04-26T03:10:18.733Z,4.40
2023-04-26T03:12:46.597Z,4.87
2023-04-26T03:15:16.305Z,5.23
2023-04-26T03:17:44.872Z,5.00
2023-04-26T03:20:14.178Z,4.47
2023-04-26T03:22:43.530Z,4.60
2023-04-26T03:25:13.195Z,4.70
2023-04-26T03:27:41.452Z,4.80
2023-04-26T03:30:10.517Z,4.73
2023-04-26T03:32:40.091Z,5.17
2023-04-26T03:35:08.688Z,4.50
2023-04-26T03:37:39.699Z,5.30
2023-04-26T03:40:11.765Z,5.37
2023-04-26T03:42:39.672Z,4.70
2023-04-26T03:45:08.881Z,4.93
2023-04-26T03:47:36.762Z,5.23
2023-04-26T03:50:05.234Z,5.10
2023-04-26T03:52:33.107Z,5.37
2023-04-26T03:55:01.016Z,5.10
2023-04-26T03:57:30.370Z,4.80
2023-04-26T03:59:58.302Z,5.47
2023-04-26T04:02:27.092Z,4.83
2023-04-26T04:04:55.297Z,4.37
2023-04-26T04:07:23.254Z,4.93
2023-04-26T04:09:51.192Z,5.33
2023-04-26T04:12:20.650Z,5.27
2023-04-26T04:14:51.083Z,5.90
2023-04-26T04:17:19.077Z,6.03
2023-04-26T04:19:47.098Z,7.33
2023-04-26T04:22:14.993Z,5.53
2023-04-26T04:24:44.249Z,6.23
2023-04-26T04:27:12.382Z,6.07
2023-04-26T04:29:42.183Z,6.53
2023-04-26T04:32:11.450Z,6.63
2023-04-26T04:34:39.392Z,7.27
2023-04-26T04:37:07.347Z,5.53
2023-04-26T04:39:35.272Z,6.23
2023-04-26T04:42:03.591Z,5.67
2023-04-26T04:44:31.589Z,6.23
2023-04-26T04:47:00.370Z,5.30
2023-04-26T04:49:30.652Z,5.37
2023-04-26T04:51:59.364Z,5.50
2023-04-26T04:54:27.838Z,5.70
2023-04-26T04:56:55.767Z,5.90
2023-04-26T04:59:23.836Z,6.13
2023-04-26T05:01:52.012Z,6.80
2023-04-26T05:04:20.525Z,5.50
2023-04-26T05:06:51.182Z,6.00
2023-04-26T05:09:19.397Z,5.33
2023-04-26T05:11:47.336Z,5.13
2023-04-26T05:14:15.494Z,5.50
2023-04-26T05:16:43.601Z,5.60
2023-04-26T05:19:13.335Z,5.50
2023-04-26T05:21:42.093Z,6.10
2023-04-26T05:24:14.265Z,5.40
2023-04-26T05:26:42.226Z,4.90
2023-04-26T05:29:33.300Z,5.70
2023-04-26T05:32:10.727Z,5.53
2023-04-26T05:34:42.320Z,5.50
2023-04-26T05:37:13.831Z,5.67
2023-04-26T05:39:43.928Z,6.80
2023-04-26T05:42:12.036Z,5.80
2023-04-26T05:44:40.687Z,6.50
2023-04-26T05:47:09.581Z,5.77
2023-04-26T05:49:37.599Z,6.20
2023-04-26T05:52:05.756Z,6.30
2023-04-26T05:54:34.110Z,6.90
2023-04-26T05:57:04.116Z,6.60
2023-04-26T05:59:33.056Z,6.70
2023-04-26T06:02:01.606Z,7.07
2023-04-26T06:04:30.444Z,7.20
2023-04-26T06:07:08.691Z,7.07
2023-04-26T06:09:36.595Z,7.87
2023-04-26T06:12:09.071Z,7.47
2023-04-26T06:14:41.548Z,7.37
2023-04-26T06:17:15.149Z,7.40
2023-04-26T06:19:43.959Z,7.33
2023-04-26T06:22:12.051Z,8.40
2023-04-26T06:24:41.086Z,6.83
2023-04-26T06:27:11.579Z,8.23
2023-04-26T06:29:43.684Z,7.60
2023-04-26T06:32:12.002Z,7.03
2023-04-26T06:34:39.881Z,7.00
2023-04-26T06:37:07.930Z,7.57
2023-04-26T06:39:39.131Z,7.03
2023-04-26T06:42:07.244Z,7.10
2023-04-26T06:44:55.191Z,7.60
2023-04-26T06:47:23.148Z,7.40
2023-04-26T06:49:51.732Z,7.00
2023-04-26T06:52:21.540Z,8.00
2023-04-26T06:54:57.134Z,7.30
2023-04-26T06:57:26.043Z,7.00
2023-04-26T06:59:55.278Z,6.63
2023-04-26T07:02:24.501Z,7.93
2023-04-26T07:04:52.888Z,6.57
2023-04-26T07:07:21.008Z,7.20
2023-04-26T07:09:48.878Z,7.10
2023-04-26T07:12:16.725Z,6.37
2023-04-26T07:14:44.545Z,5.83
2023-04-26T07:17:13.742Z,5.27
2023-04-26T07:19:41.675Z,5.00
2023-04-26T07:22:09.550Z,5.40
2023-04-26T07:24:37.444Z,5.20
2023-04-26T07:27:05.329Z,4.93
2023-04-26T07:29:33.206Z,4.90
2023-04-26T07:32:01.160Z,4.40
2023-04-26T07:34:30.506Z,4.50
2023-04-26T07:36:58.473Z,5.20
2023-04-26T07:39:26.370Z,4.90
2023-04-26T07:41:54.199Z,5.07
2023-04-26T07:44:22.138Z,4.67
2023-04-26T07:46:49.980Z,4.07
2023-04-26T07:49:17.825Z,4.70
2023-04-26T07:51:47.269Z,3.63
2023-04-26T07:54:15.326Z,3.93
2023-04-26T07:56:43.258Z,4.30
2023-04-26T07:59:11.136Z,4.23
2023-04-26T08:01:39.475Z,4.40
2023-04-26T08:04:09.482Z,3.57
2023-04-26T08:06:38.868Z,3.60
2023-04-26T08:09:08.070Z,3.63
2023-04-26T08:11:36.107Z,3.97
2023-04-26T08:14:04.372Z,3.90
2023-04-26T08:16:32.566Z,3.83
2023-04-26T08:19:02.912Z,3.63
2023-04-26T08:21:31.088Z,3.47
2023-04-26T08:23:59.068Z,4.00
2023-04-26T08:26:28.215Z,4.30
2023-04-26T08:28:57.361Z,3.77
2023-04-26T08:31:28.150Z,4.00
2023-04-26T08:33:56.109Z,3.90
2023-04-26T08:36:23.962Z,4.20
2023-04-26T08:38:51.835Z,3.77
2023-04-26T08:41:23.791Z,4.43
2023-04-26T08:43:53.594Z,3.93
2023-04-26T08:46:22.188Z,3.93
2023-04-26T08:48:56.219Z,3.50
2023-04-26T08:51:24.510Z,3.40
2023-04-26T08:53:54.175Z,3.50
2023-04-26T08:56:23.974Z,3.53
2023-04-26T08:58:54.554Z,3.03
2023-04-26T09:01:22.853Z,3.20
2023-04-26T09:03:51.801Z,2.73
2023-04-26T09:06:21.689Z,3.43
2023-04-26T09:08:49.601Z,3.50
2023-04-26T09:11:17.806Z,2.97
2023-04-26T09:13:45.661Z,2.47
2023-04-26T09:16:15.185Z,2.50
2023-04-26T09:18:52.229Z,3.27
2023-04-26T09:21:20.512Z,4.50
2023-04-26T09:24:04.257Z,3.43
2023-04-26T09:26:32.193Z,3.30
2023-04-26T09:29:13.567Z,3.20
2023-04-26T09:31:46.339Z,3.30
2023-04-26T09:34:16.729Z,3.10
2023-04-26T09:36:48.881Z,2.93
2023-04-26T09:39:17.107Z,3.83
2023-04-26T09:41:45.718Z,3.40
2023-04-26T09:44:23.851Z,3.27
2023-04-26T09:47:10.710Z,2.97
2023-04-26T09:49:52.106Z,3.13
2023-04-26T09:52:23.252Z,2.83
2023-04-26T09:54:53.180Z,3.00
2023-04-26T09:57:23.694Z,3.30
2023-04-26T09:59:55.079Z,3.47
2023-04-26T10:02:26.405Z,3.33
2023-04-26T10:04:56.120Z,3.10
2023-04-26T10:07:26.748Z,3.30
2023-04-26T10:09:55.860Z,3.20
2023-04-26T10:12:23.953Z,2.70
2023-04-26T10:14:51.804Z,2.77
2023-04-26T10:17:20.737Z,2.60
2023-04-26T10:19:52.058Z,3.10
2023-04-26T10:22:23.731Z,3.10
2023-04-26T10:24:52.492Z,2.93
2023-04-26T10:27:48.833Z,2.60
2023-04-26T10:30:17.964Z,2.73
2023-04-26T10:33:16.452Z,2.53
2023-04-26T10:36:11.225Z,2.77
2023-04-26T10:38:41.466Z,3.07
2023-04-26T10:41:36.116Z,3.27
2023-04-26T10:44:37.101Z,3.20
2023-04-26T10:47:06.695Z,3.40
2023-04-26T10:49:46.654Z,2.60
2023-04-26T10:52:16.892Z,2.70
2023-04-26T10:54:57.632Z,3.00
2023-04-26T10:57:41.266Z,2.60
2023-04-26T11:00:32.101Z,2.80
2023-04-26T11:03:05.078Z,2.70
2023-04-26T11:05:55.594Z,2.57
2023-04-26T11:08:30.022Z,2.73
2023-04-26T11:11:08.922Z,2.37
2023-04-26T11:13:37.860Z,2.50
2023-04-26T11:16:07.134Z,2.30
2023-04-26T11:18:35.646Z,2.40
2023-04-26T11:21:03.759Z,2.13
2023-04-26T11:23:33.163Z,2.10
2023-04-26T11:26:02.907Z,2.17
2023-04-26T11:28:33.937Z,2.20
2023-04-26T11:31:03.170Z,2.20
2023-04-26T11:33:32.453Z,2.00
2023-04-26T11:36:00.592Z,2.50
2023-04-26T11:38:29.848Z,2.37
2023-04-26T11:41:00.552Z,2.20
2023-04-26T11:43:35.368Z,2.60
2023-04-26T11:46:05.608Z,2.20
2023-04-26T11:48:35.790Z,2.37
2023-04-26T11:51:05.125Z,2.67
2023-04-26T11:53:37.532Z,2.20
2023-04-26T11:56:16.514Z,2.50
2023-04-26T11:58:49.276Z,2.60
2023-04-26T12:01:24.260Z,2.50
2023-04-26T12:03:53.229Z,2.50
2023-04-26T12:06:21.810Z,2.23
2023-04-26T12:08:53.179Z,2.43
2023-04-26T12:11:22.950Z,2.50
2023-04-26T12:13:50.853Z,2.37
2023-04-26T12:16:26.167Z,2.20
2023-04-26T12:18:55.256Z,2.10
2023-04-26T12:21:28.842Z,2.20
2023-04-26T12:23:58.506Z,2.57
2023-04-26T12:29:19.927Z,2.60
2023-04-26T12:31:48.241Z,2.40
2023-04-26T12:34:16.546Z,2.20
2023-04-26T12:36:44.653Z,2.33
2023-04-26T12:39:13.620Z,2.17
2023-04-26T12:41:41.764Z,2.60
2023-04-26T12:44:09.778Z,2.80
2023-04-26T12:46:39.119Z,2.13
2023-04-26T12:49:07.561Z,2.70
2023-04-26T12:51:38.150Z,2.83
2023-04-26T12:54:06.088Z,2.20
2023-04-26T12:56:35.105Z,2.47
2023-04-26T12:59:03.136Z,2.27
2023-04-26T13:01:31.829Z,2.60
2023-04-26T13:04:04.695Z,2.37
2023-04-26T13:06:33.297Z,2.37
2023-04-26T13:09:01.594Z,1.93
2023-04-26T13:11:29.565Z,2.27
2023-04-26T13:13:57.419Z,2.23
2023-04-26T13:16:25.427Z,2.47
2023-04-26T13:18:53.276Z,2.03
2023-04-26T13:21:22.536Z,2.37
2023-04-26T13:23:50.609Z,1.90
2023-04-26T13:26:19.015Z,3.20
2023-04-26T13:28:47.644Z,2.43
2023-04-26T13:31:17.078Z,2.87
2023-04-26T13:33:47.251Z,1.80
2023-04-26T13:36:15.840Z,2.30
2023-04-26T13:38:45.900Z,2.27
2023-04-26T13:41:13.760Z,2.30
2023-04-26T13:43:41.740Z,2.40
2023-04-26T13:46:09.636Z,2.30
2023-04-26T13:48:37.575Z,2.77
2023-04-26T13:51:07.256Z,2.30
2023-04-26T13:53:35.257Z,2.60
2023-04-26T13:56:05.291Z,2.30
2023-04-26T13:58:33.134Z,2.47
2023-04-26T14:01:01.557Z,2.50
2023-04-26T14:03:29.568Z,2.33
2023-04-26T14:05:57.806Z,2.40
2023-04-26T14:08:25.740Z,2.80
2023-04-26T14:10:55.090Z,2.60
2023-04-26T14:13:25.021Z,2.90
2023-04-26T14:15:52.935Z,2.53
2023-04-26T14:18:20.821Z,2.50
2023-04-26T14:20:48.659Z,2.70
2023-04-26T14:23:16.949Z,2.30
2023-04-26T14:25:44.904Z,2.47
2023-04-26T14:28:12.774Z,3.33
2023-04-26T14:30:42.509Z,2.57
2023-04-26T14:33:10.486Z,2.60
2023-04-26T14:35:38.365Z,2.50
2023-04-26T14:38:06.595Z,2.30
2023-04-26T14:40:34.451Z,2.37
2023-04-26T14:43:02.375Z,2.20
2023-04-26T14:45:43.437Z,2.40
2023-04-26T14:48:14.172Z,2.40
2023-04-26T14:50:42.327Z,2.40
2023-04-26T14:53:10.770Z,2.10
2023-04-26T14:55:38.667Z,2.40
2023-04-26T14:58:07.068Z,2.37
2023-04-26T15:00:34.991Z,2.40
2023-04-26T15:03:03.107Z,2.20
2023-04-26T15:05:32.850Z,2.23
2023-04-26T15:08:01.222Z,2.10
2023-04-26T15:10:29.162Z,2.50
2023-04-26T15:12:57.433Z,2.50
2023-04-26T15:15:25.355Z,2.33
2023-04-26T15:17:53.365Z,2.80
2023-04-26T15:20:21.628Z,2.60
2023-04-26T15:22:50.994Z,2.30
2023-04-26T15:25:19.229Z,2.20
2023-04-26T15:27:50.448Z,2.80
2023-04-26T15:30:19.025Z,2.70
2023-04-26T15:32:49.541Z,2.30
2023-04-26T15:35:17.628Z,2.47
2023-04-26T15:37:45.572Z,2.87
2023-04-26T15:40:15.104Z,2.37
2023-04-26T15:42:42.927Z,2.60
2023-04-26T15:45:11.641Z,2.20
2023-04-26T15:47:39.567Z,2.50
2023-04-26T15:50:09.170Z,2.00
2023-04-26T15:52:39.308Z,2.40
2023-04-26T15:55:08.271Z,2.43
2023-04-26T15:57:37.707Z,2.00
2023-04-26T16:00:08.465Z,2.33
2023-04-26T16:02:37.048Z,2.40
2023-04-26T16:05:07.065Z,2.20
2023-04-26T16:07:35.079Z,2.50
2023-04-26T16:10:03.235Z,2.43
2023-04-26T16:12:31.416Z,2.33
2023-04-26T16:15:01.429Z,2.30
2023-04-26T16:17:29.782Z,2.33
2023-04-26T16:19:57.729Z,2.17
2023-04-26T16:22:25.728Z,2.20
2023-04-26T16:24:53.673Z,1.80
2023-04-26T16:27:22.362Z,2.10
2023-04-26T16:29:50.274Z,2.10
2023-04-26T16:32:19.680Z,2.30
2023-04-26T16:34:47.766Z,2.30
2023-04-26T16:37:15.655Z,2.10
2023-04-26T16:39:43.630Z,2.17
2023-04-26T16:42:11.780Z,2.03
2023-04-26T16:44:40.422Z,1.77
2023-04-26T16:47:08.315Z,2.20
2023-04-26T16:49:37.568Z,2.17
2023-04-26T16:52:05.974Z,2.73
2023-04-26T16:54:33.974Z,2.40
2023-04-26T16:57:03.673Z,2.27
2023-04-26T16:59:31.633Z,2.60
2023-04-26T17:01:59.730Z,2.13
2023-04-26T17:04:27.838Z,1.93
2023-04-26T17:06:57.146Z,2.50
2023-04-26T17:09:25.206Z,2.10
2023-04-26T17:11:53.480Z,2.10
2023-04-26T17:14:21.420Z,2.10
2023-04-26T17:16:49.260Z,2.50
2023-04-26T17:19:17.328Z,2.30
2023-04-26T17:21:45.178Z,2.43
2023-04-26T17:24:14.626Z,2.30
2023-04-26T17:26:42.831Z,2.20
2023-04-26T17:29:10.761Z,2.40
2023-04-26T17:31:38.672Z,2.17
2023-04-26T17:34:06.682Z,2.97
2023-04-26T17:36:34.603Z,2.53
2023-04-26T17:39:03.367Z,2.53
2023-04-26T17:41:32.633Z,2.10
2023-04-26T17:44:00.491Z,2.17
2023-04-26T17:46:28.433Z,2.27
2023-04-26T17:48:56.509Z,2.10
2023-04-26T17:51:24.360Z,2.30
2023-04-26T17:53:52.430Z,2.30
2023-04-26T17:56:20.343Z,1.87
2023-04-26T17:58:49.954Z,2.20
2023-04-26T18:01:18.024Z,1.80
2023-04-26T18:03:46.368Z,2.00
2023-04-26T18:06:14.288Z,1.90
2023-04-26T18:08:42.251Z,1.90
2023-04-26T18:11:10.127Z,2.13
2023-04-26T18:13:38.028Z,2.33
2023-04-26T18:16:07.527Z,1.87
2023-04-26T18:18:35.601Z,2.10
2023-04-26T18:21:03.456Z,2.20
2023-04-26T18:23:31.381Z,1.90
2023-04-26T18:25:59.289Z,2.10
2023-04-26T18:28:27.172Z,2.23
2023-04-26T18:30:57.524Z,1.90
2023-04-26T18:33:28.115Z,2.00
2023-04-26T18:35:56.358Z,2.20
2023-04-26T18:38:24.735Z,2.10
2023-04-26T18:40:52.776Z,2.17
2023-04-26T18:43:20.945Z,2.33
2023-04-26T18:45:49.268Z,2.30
2023-04-26T18:48:17.612Z,2.30
2023-04-26T18:50:52.216Z,2.33
2023-04-26T18:53:22.250Z,2.47
2023-04-26T18:55:52.327Z,2.43
2023-04-26T18:58:20.372Z,1.80
2023-04-26T19:00:49.774Z,2.33
2023-04-26T19:03:18.870Z,2.17
2023-04-26T19:05:47.285Z,2.37
2023-04-26T19:08:20.878Z,2.13
2023-04-26T19:10:48.944Z,2.07
2023-04-26T19:13:18.683Z,1.73
2023-04-26T19:15:47.188Z,1.97
2023-04-26T19:18:15.520Z,2.60
2023-04-26T19:20:43.580Z,2.03
2023-04-26T19:23:12.825Z,2.30
2023-04-26T19:25:42.116Z,2.10
2023-04-26T19:28:09.985Z,2.20
2023-04-26T19:30:38.229Z,2.30
2023-04-26T19:33:06.213Z,2.40
2023-04-26T19:35:34.264Z,2.00
2023-04-26T19:38:02.106Z,2.10
2023-04-26T19:40:29.984Z,2.30
2023-04-26T19:42:59.231Z,2.30
2023-04-26T19:45:27.097Z,2.00
2023-04-26T19:47:55.029Z,1.90
2023-04-26T19:50:23.042Z,1.80
2023-04-26T19:52:51.692Z,2.10
2023-04-26T19:55:19.769Z,2.17
2023-04-26T19:57:48.232Z,2.33
2023-04-26T20:00:18.075Z,2.10
2023-04-26T20:02:46.202Z,2.60
2023-04-26T20:05:14.380Z,2.60
2023-04-26T20:07:42.625Z,2.93
2023-04-26T20:10:11.097Z,2.30
2023-04-26T20:12:39.135Z,1.97
2023-04-26T20:15:08.402Z,2.00
2023-04-26T20:17:37.840Z,3.07
2023-04-26T20:20:07.730Z,2.30
2023-04-26T20:22:35.955Z,2.00
2023-04-26T20:25:04.195Z,2.77
2023-04-26T20:27:32.514Z,2.50
2023-04-26T20:30:00.980Z,2.13
2023-04-26T20:32:29.067Z,2.47
2023-04-26T20:34:58.334Z,2.17
2023-04-26T20:37:26.793Z,2.33
2023-04-26T20:39:55.047Z,2.70
2023-04-26T20:42:23.202Z,2.70
2023-04-26T20:44:51.040Z,3.37
2023-04-26T20:47:19.192Z,2.60
2023-04-26T20:49:47.112Z,2.90
2023-04-26T20:52:17.272Z,3.63
2023-04-26T20:54:46.232Z,3.23
2023-04-26T20:57:14.097Z,3.70
2023-04-26T20:59:42.099Z,3.10
2023-04-26T21:02:12.761Z,2.77
2023-04-26T21:04:42.329Z,2.90
2023-04-26T21:07:10.943Z,3.47
2023-04-26T21:09:40.234Z,3.23
2023-04-26T21:12:08.226Z,2.93
2023-04-26T21:14:36.139Z,3.20
2023-04-26T21:17:05.583Z,3.30
2023-04-26T21:19:33.484Z,2.90
2023-04-26T21:22:01.379Z,2.77
2023-04-26T21:24:29.261Z,3.27
2023-04-26T21:26:58.516Z,2.87
2023-04-26T21:29:26.480Z,2.90
2023-04-26T21:31:54.461Z,2.87
2023-04-26T21:34:22.429Z,2.90
2023-04-26T21:36:50.585Z,2.97
2023-04-26T21:39:19.158Z,2.60
2023-04-26T21:41:47.133Z,3.30
2023-04-26T21:44:16.327Z,2.87
2023-04-26T21:46:44.217Z,2.70
2023-04-26T21:49:12.264Z,2.80
2023-04-26T21:51:40.242Z,2.80
2023-04-26T21:54:08.164Z,2.87
2023-04-26T21:56:36.028Z,3.00
2023-04-26T21:59:04.752Z,3.10
2023-04-26T22:01:34.087Z,2.63
2023-04-26T22:04:02.173Z,3.00
2023-04-26T22:06:30.088Z,3.30
2023-04-26T22:08:57.949Z,3.00
2023-04-26T22:11:25.981Z,2.97
2023-04-26T22:13:53.853Z,3.10
2023-04-26T22:16:21.755Z,2.60
2023-04-26T22:18:53.726Z,2.97
2023-04-26T22:21:22.249Z,3.20
2023-04-26T22:23:50.363Z,2.43
2023-04-26T22:26:18.431Z,2.90
2023-04-26T22:28:46.279Z,2.77
2023-04-26T22:31:14.297Z,2.37
2023-04-26T22:33:42.174Z,2.60
2023-04-26T22:36:11.466Z,2.73
2023-04-26T22:38:39.755Z,2.60
2023-04-26T22:41:07.632Z,2.60
2023-04-26T22:43:35.854Z,2.60
2023-04-26T22:46:03.779Z,2.77
2023-04-26T22:48:31.687Z,2.70
2023-04-26T22:51:00.080Z,2.90
2023-04-26T22:53:32.030Z,2.90
2023-04-26T22:56:00.626Z,2.70
2023-04-26T22:58:28.538Z,2.50
2023-04-26T23:00:56.482Z,2.87
2023-04-26T23:03:24.618Z,2.70
2023-04-26T23:05:52.582Z,2.80
2023-04-26T23:08:20.518Z,2.87
2023-04-26T23:10:49.880Z,2.80
2023-04-26T23:13:17.726Z,2.50
2023-04-26T23:15:45.613Z,2.50
2023-04-26T23:18:13.777Z,2.27
2023-04-26T23:20:41.937Z,2.57
2023-04-26T23:23:09.839Z,2.70
2023-04-26T23:25:41.715Z,2.50
2023-04-26T23:28:11.407Z,2.67
2023-04-26T23:30:39.287Z,2.63
2023-04-26T23:33:07.303Z,2.37
2023-04-26T23:35:35.239Z,2.20
2023-04-26T23:38:03.122Z,2.50
2023-04-26T23:40:30.940Z,2.57
2023-04-26T23:42:58.848Z,2.30
2023-04-26T23:45:28.087Z,2.47
2023-04-26T23:47:56.051Z,2.30
2023-04-26T23:50:23.974Z,2.47
2023-04-26T23:52:51.872Z,2.00
2023-04-26T23:55:19.902Z,2.50
2023-04-26T23:57:47.806Z,2.53
